createdAt,value
2018-07-21T00:01:31.123Z,5.00
2018-07-21T00:04:02.999Z,4.00
2018-07-21T00:06:34.715Z,5.80
2018-07-21T00:09:09.161Z,8.00
2018-07-21T00:11:41.228Z,9.00
2018-07-21T00:14:13.648Z,9.40
2018-07-21T00:16:45.435Z,6.80
2018-07-21T00:19:17.480Z,6.20
2018-07-21T00:21:49.128Z,6.60
2018-07-21T00:24:20.979Z,5.20
2018-07-21T00:26:52.798Z,6.20
2018-07-21T00:29:24.436Z,4.80
2018-07-21T00:31:56.347Z,8.00
2018-07-21T00:34:29.301Z,6.40
2018-07-21T00:37:01.102Z,6.80
2018-07-21T00:39:32.841Z,13.20
2018-07-21T00:42:04.788Z,10.00
2018-07-21T00:44:36.637Z,12.60
2018-07-21T00:47:08.313Z,10.20
2018-07-21T00:49:40.068Z,9.60
2018-07-21T00:52:11.868Z,13.00
2018-07-21T00:54:43.664Z,11.40
2018-07-21T00:57:15.606Z,12.80
2018-07-21T00:59:47.351Z,11.40
2018-07-21T01:02:19.310Z,14.20
2018-07-21T01:04:50.957Z,12.40
2018-07-21T01:07:22.701Z,13.40
2018-07-21T01:09:54.308Z,12.00
2018-07-21T01:12:26.236Z,16.60
2018-07-21T01:14:57.914Z,18.00
2018-07-21T01:17:29.796Z,12.00
2018-07-21T01:20:01.683Z,17.80
2018-07-21T01:22:33.361Z,19.80
2018-07-21T01:25:05.213Z,14.00
2018-07-21T01:27:37.095Z,16.60
2018-07-21T01:30:09.124Z,15.00
2018-07-21T01:32:41.863Z,11.80
2018-07-21T01:35:13.541Z,11.40
2018-07-21T01:37:45.435Z,10.40
2018-07-21T01:40:17.325Z,13.20
2018-07-21T01:42:49.181Z,12.20
2018-07-21T01:45:20.731Z,15.00
2018-07-21T01:47:52.566Z,14.40
2018-07-21T01:50:24.172Z,13.00
2018-07-21T01:52:57.288Z,16.40
2018-07-21T01:55:29.075Z,15.60
2018-07-21T01:58:01.078Z,18.00
2018-07-21T02:00:32.818Z,28.80
2018-07-21T02:03:04.449Z,23.00
2018-07-21T02:05:36.151Z,61.60
2018-07-21T02:08:07.998Z,61.60
2018-07-21T02:10:39.847Z,62.40
2018-07-21T02:13:11.632Z,65.40
2018-07-21T02:15:43.353Z,63.40
2018-07-21T02:18:15.348Z,54.00
2018-07-21T02:20:47.132Z,62.00
2018-07-21T02:23:18.924Z,65.80
2018-07-21T02:25:50.377Z,64.40
2018-07-21T02:28:22.317Z,65.40
2018-07-21T02:30:54.397Z,68.80
2018-07-21T02:33:26.411Z,66.80
2018-07-21T02:35:57.943Z,63.40
2018-07-21T02:38:30.214Z,65.60
2018-07-21T02:41:01.746Z,60.60
2018-07-21T02:43:33.807Z,62.40
2018-07-21T02:46:05.796Z,60.80
2018-07-21T02:48:37.511Z,57.80
2018-07-21T02:51:09.240Z,55.00
2018-07-21T02:53:40.818Z,58.60
2018-07-21T02:56:12.474Z,54.00
2018-07-21T02:58:44.158Z,55.80
2018-07-21T03:01:15.879Z,42.80
2018-07-21T03:03:47.527Z,42.60
2018-07-21T03:06:19.354Z,30.00
2018-07-21T03:08:51.211Z,28.80
2018-07-21T03:11:23.152Z,29.80
2018-07-21T03:13:55.165Z,26.80
2018-07-21T03:16:27.009Z,25.80
2018-07-21T03:18:58.812Z,27.40
2018-07-21T03:21:30.440Z,27.20
2018-07-21T03:24:11.856Z,23.40
2018-07-21T03:26:44.081Z,35.40
2018-07-21T03:29:15.980Z,32.60
2018-07-21T03:31:47.547Z,37.40
2018-07-21T03:34:19.875Z,36.40
2018-07-21T03:36:52.099Z,30.80
2018-07-21T03:39:24.033Z,28.60
2018-07-21T03:41:55.742Z,31.40
2018-07-21T03:44:27.653Z,24.00
2018-07-21T03:46:59.754Z,30.20
2018-07-21T03:49:31.621Z,36.20
2018-07-21T03:52:03.458Z,39.20
2018-07-21T03:54:34.992Z,34.20
2018-07-21T03:57:06.729Z,26.80
2018-07-21T03:59:38.463Z,37.00
2018-07-21T04:02:10.532Z,39.80
2018-07-21T04:04:42.278Z,34.80
2018-07-21T04:07:13.906Z,34.20
2018-07-21T04:09:46.183Z,27.60
2018-07-21T04:12:18.142Z,42.80
2018-07-21T04:14:50.107Z,40.80
2018-07-21T04:17:27.769Z,30.00
2018-07-21T04:20:04.459Z,37.60
2018-07-21T04:22:35.952Z,23.80
2018-07-21T04:25:08.132Z,34.60
2018-07-21T04:27:40.103Z,35.60
2018-07-21T04:30:11.657Z,34.40
2018-07-21T04:32:43.259Z,31.00
2018-07-21T04:35:16.100Z,28.40
2018-07-21T04:37:47.788Z,28.20
2018-07-21T04:40:19.596Z,24.40
2018-07-21T04:42:51.077Z,31.20
2018-07-21T04:45:23.238Z,27.80
2018-07-21T04:47:55.393Z,26.80
2018-07-21T04:50:27.975Z,30.20
2018-07-21T04:52:59.787Z,36.40
2018-07-21T04:55:31.700Z,19.20
2018-07-21T04:58:03.477Z,26.80
2018-07-21T05:00:35.616Z,30.20
2018-07-21T05:03:07.636Z,22.60
2018-07-21T05:05:39.731Z,28.20
2018-07-21T05:08:11.460Z,25.00
2018-07-21T05:10:43.350Z,25.80
2018-07-21T05:13:15.117Z,25.20
2018-07-21T05:15:47.019Z,25.40
2018-07-21T05:18:18.848Z,19.80
2018-07-21T05:20:50.947Z,21.40
2018-07-21T05:23:22.792Z,21.00
2018-07-21T05:25:54.661Z,22.00
2018-07-21T05:28:26.557Z,23.40
2018-07-21T05:30:58.215Z,27.00
2018-07-21T05:33:30.092Z,25.40
2018-07-21T05:36:02.537Z,21.40
2018-07-21T05:38:34.333Z,22.00
2018-07-21T05:41:06.111Z,20.20
2018-07-21T05:43:37.914Z,25.80
2018-07-21T05:46:09.813Z,23.40
2018-07-21T05:48:41.609Z,21.20
2018-07-21T05:51:13.311Z,23.80
2018-07-21T05:53:45.119Z,21.20
2018-07-21T05:56:17.020Z,26.80
2018-07-21T05:58:48.819Z,21.40
2018-07-21T06:01:21.444Z,21.40
2018-07-21T06:03:53.418Z,25.00
2018-07-21T06:06:25.699Z,26.00
2018-07-21T06:08:57.392Z,29.60
2018-07-21T06:11:29.213Z,28.60
2018-07-21T06:14:01.605Z,28.40
2018-07-21T06:16:34.590Z,25.60
2018-07-21T06:19:06.798Z,22.00
2018-07-21T06:21:38.714Z,22.00
2018-07-21T06:24:10.784Z,26.60
2018-07-21T06:26:42.628Z,31.00
2018-07-21T06:29:14.387Z,20.40
2018-07-21T06:31:46.285Z,28.60
2018-07-21T06:34:17.769Z,28.20
2018-07-21T06:36:49.726Z,26.40
2018-07-21T06:39:21.470Z,25.20
2018-07-21T06:41:53.421Z,27.00
2018-07-21T06:44:25.455Z,30.00
2018-07-21T06:46:57.359Z,28.80
2018-07-21T06:49:29.266Z,27.80
2018-07-21T06:52:01.237Z,29.60
2018-07-21T06:54:32.908Z,31.20
2018-07-21T06:57:04.826Z,29.60
2018-07-21T06:59:36.827Z,27.40
2018-07-21T07:02:08.835Z,33.60
2018-07-21T07:04:40.623Z,32.60
2018-07-21T07:07:12.489Z,36.60
2018-07-21T07:09:44.386Z,31.00
2018-07-21T07:12:16.455Z,28.60
2018-07-21T07:14:48.157Z,31.20
2018-07-21T07:17:20.068Z,27.40
2018-07-21T07:19:52.777Z,35.00
2018-07-21T07:22:24.659Z,32.80
2018-07-21T07:24:56.413Z,33.60
2018-07-21T07:27:28.356Z,33.20
2018-07-21T07:30:00.914Z,33.80
2018-07-21T07:32:32.701Z,34.60
2018-07-21T07:35:05.128Z,36.60
2018-07-21T07:37:37.048Z,32.60
2018-07-21T07:40:08.992Z,33.60
2018-07-21T07:42:40.755Z,37.80
2018-07-21T07:45:12.863Z,33.00
2018-07-21T07:47:44.799Z,37.20
2018-07-21T07:50:16.398Z,36.60
2018-07-21T07:52:48.297Z,41.00
2018-07-21T07:55:20.552Z,34.00
2018-07-21T07:57:52.409Z,41.80
2018-07-21T08:00:24.209Z,37.40
2018-07-21T08:02:56.057Z,39.00
2018-07-21T08:05:28.006Z,37.80
2018-07-21T08:07:59.926Z,37.20
2018-07-21T08:10:32.502Z,36.80
2018-07-21T08:13:04.537Z,41.00
2018-07-21T08:15:36.641Z,41.20
2018-07-21T08:18:08.653Z,41.80
2018-07-21T08:20:40.681Z,37.40
2018-07-21T08:23:12.739Z,42.00
2018-07-21T08:25:44.915Z,40.80
2018-07-21T08:28:18.310Z,33.40
2018-07-21T08:30:50.906Z,35.40
2018-07-21T08:33:23.581Z,41.00
2018-07-21T08:35:57.327Z,38.20
2018-07-21T08:38:29.433Z,41.20
2018-07-21T08:41:01.800Z,39.80
2018-07-21T08:43:34.031Z,38.80
2018-07-21T08:46:06.576Z,43.80
2018-07-21T08:48:38.299Z,44.40
2018-07-21T08:51:11.156Z,39.40
2018-07-21T08:53:44.574Z,37.20
2018-07-21T08:56:17.117Z,40.20
2018-07-21T08:58:49.773Z,35.40
2018-07-21T09:01:21.981Z,37.80
2018-07-21T09:03:54.061Z,33.60
2018-07-21T09:06:26.970Z,35.80
2018-07-21T09:08:59.174Z,34.40
2018-07-21T09:11:31.156Z,41.20
2018-07-21T09:14:03.888Z,35.40
2018-07-21T09:16:36.030Z,36.40
2018-07-21T09:19:08.054Z,38.80
2018-07-21T09:21:40.826Z,37.60
2018-07-21T09:24:12.529Z,38.60
2018-07-21T09:26:44.355Z,41.00
2018-07-21T09:29:16.114Z,39.00
2018-07-21T09:31:47.922Z,37.20
2018-07-21T09:34:19.611Z,39.00
2018-07-21T09:36:53.381Z,36.80
2018-07-21T09:39:25.178Z,34.00
2018-07-21T09:41:56.919Z,46.40
2018-07-21T09:44:28.753Z,43.80
2018-07-21T09:47:00.799Z,39.00
2018-07-21T09:49:32.382Z,44.40
2018-07-21T09:52:04.103Z,40.00
2018-07-21T09:54:36.159Z,39.00
2018-07-21T09:57:07.950Z,44.20
2018-07-21T09:59:39.797Z,42.80
2018-07-21T10:02:11.643Z,41.40
2018-07-21T10:04:43.556Z,43.40
2018-07-21T10:07:15.439Z,43.40
2018-07-21T10:09:47.300Z,41.40
2018-07-21T10:12:19.160Z,43.80
2018-07-21T10:14:50.967Z,40.20
2018-07-21T10:17:22.824Z,45.00
2018-07-21T10:19:55.801Z,45.40
2018-07-21T10:22:27.930Z,40.40
2018-07-21T10:25:05.123Z,46.60
2018-07-21T10:27:41.675Z,49.00
2018-07-21T10:30:15.007Z,46.00
2018-07-21T10:32:48.109Z,41.80
2018-07-21T10:35:20.076Z,46.20
2018-07-21T10:37:53.811Z,47.80
2018-07-21T10:40:25.790Z,43.80
2018-07-21T10:42:57.705Z,44.40
2018-07-21T10:45:29.764Z,44.40
2018-07-21T10:48:01.619Z,43.80
2018-07-21T10:50:33.564Z,45.40
2018-07-21T10:53:05.361Z,37.80
2018-07-21T10:55:37.220Z,32.60
2018-07-21T10:58:09.076Z,28.20
2018-07-21T11:00:41.002Z,24.60
2018-07-21T11:03:12.934Z,23.60
2018-07-21T11:05:45.938Z,22.80
2018-07-21T11:08:17.816Z,17.00
2018-07-21T11:10:49.555Z,21.00
2018-07-21T11:13:21.304Z,14.60
2018-07-21T11:15:53.089Z,19.20
2018-07-21T11:18:24.724Z,16.20
2018-07-21T11:20:56.623Z,14.00
2018-07-21T11:23:28.786Z,18.80
2018-07-21T11:26:00.836Z,16.40
2018-07-21T11:28:33.144Z,12.80
2018-07-21T11:31:05.017Z,14.40
2018-07-21T11:33:36.774Z,17.40
2018-07-21T11:36:09.673Z,17.40
2018-07-21T11:38:41.866Z,14.00
2018-07-21T11:41:13.639Z,16.00
2018-07-21T11:43:45.705Z,17.80
2018-07-21T11:46:17.351Z,16.20
2018-07-21T11:48:49.169Z,17.20
2018-07-21T11:51:20.922Z,20.80
2018-07-21T11:53:52.806Z,18.20
2018-07-21T11:56:24.441Z,19.60
2018-07-21T11:58:56.090Z,20.40
2018-07-21T12:01:27.951Z,21.80
2018-07-21T12:03:59.820Z,21.20
2018-07-21T12:06:31.667Z,21.00
2018-07-21T12:09:03.473Z,21.40
2018-07-21T12:11:35.118Z,22.00
2018-07-21T12:14:07.087Z,22.40
2018-07-21T12:16:38.709Z,24.20
2018-07-21T12:19:10.585Z,24.20
2018-07-21T12:21:42.597Z,22.60
2018-07-21T12:24:14.587Z,20.00
2018-07-21T12:26:46.662Z,17.60
2018-07-21T12:29:19.424Z,20.40
2018-07-21T12:31:51.112Z,21.60
2018-07-21T12:34:22.758Z,15.60
2018-07-21T12:36:54.694Z,19.40
2018-07-21T12:39:27.249Z,21.00
2018-07-21T12:41:59.051Z,19.00
2018-07-21T12:44:31.041Z,20.40
2018-07-21T12:47:02.950Z,16.80
2018-07-21T12:49:35.138Z,16.60
2018-07-21T12:52:07.165Z,19.40
2018-07-21T12:54:38.910Z,16.40
2018-07-21T12:57:11.283Z,23.40
2018-07-21T12:59:43.223Z,20.80
2018-07-21T13:02:15.250Z,21.40
2018-07-21T13:04:47.511Z,20.00
2018-07-21T13:07:19.071Z,19.60
2018-07-21T13:09:51.363Z,19.40
2018-07-21T13:12:23.323Z,23.40
2018-07-21T13:14:55.181Z,21.60
2018-07-21T13:17:27.298Z,17.60
2018-07-21T13:19:59.457Z,21.80
2018-07-21T13:22:31.401Z,22.00
2018-07-21T13:25:03.416Z,23.20
2018-07-21T13:27:35.262Z,20.40
2018-07-21T13:30:07.905Z,21.00
2018-07-21T13:32:39.709Z,20.80
2018-07-21T13:35:11.880Z,16.40
2018-07-21T13:38:46.533Z,25.60
2018-07-21T13:41:19.602Z,27.00
2018-07-21T13:43:51.732Z,22.00
2018-07-21T13:46:23.709Z,28.00
2018-07-21T13:48:55.818Z,27.40
2018-07-21T13:51:27.582Z,32.00
2018-07-21T13:53:59.386Z,34.20
2018-07-21T13:56:32.222Z,31.40
2018-07-21T13:59:03.891Z,36.80
2018-07-21T14:01:36.014Z,43.80
2018-07-21T14:04:08.025Z,38.20
2018-07-21T14:06:39.923Z,49.40
2018-07-21T14:09:12.593Z,47.20
2018-07-21T14:11:45.080Z,53.40
2018-07-21T14:14:16.921Z,51.80
2018-07-21T14:16:49.426Z,49.60
2018-07-21T14:19:21.433Z,46.00
2018-07-21T14:21:54.885Z,45.20
2018-07-21T14:24:26.449Z,44.60
2018-07-21T14:26:58.817Z,37.20
2018-07-21T14:29:30.821Z,39.20
2018-07-21T14:32:02.793Z,28.80
2018-07-21T14:34:34.614Z,24.80
2018-07-21T14:37:06.496Z,26.60
2018-07-21T14:39:38.375Z,26.20
2018-07-21T14:42:11.070Z,20.80
2018-07-21T14:44:43.134Z,22.00
2018-07-21T14:47:15.398Z,23.80
2018-07-21T14:49:47.301Z,22.80
2018-07-21T14:52:19.708Z,24.40
2018-07-21T14:54:51.865Z,24.80
2018-07-21T14:57:24.084Z,26.00
2018-07-21T14:59:56.001Z,24.20
2018-07-21T15:02:27.972Z,26.20
2018-07-21T15:04:59.802Z,21.00
2018-07-21T15:07:31.655Z,25.20
2018-07-21T15:10:03.727Z,28.20
2018-07-21T15:12:35.590Z,24.60
2018-07-21T15:15:08.255Z,33.80
2018-07-21T15:17:40.302Z,29.40
2018-07-21T15:20:12.270Z,35.80
2018-07-21T15:22:44.332Z,30.40
2018-07-21T15:25:16.208Z,36.40
2018-07-21T15:27:48.153Z,36.80
2018-07-21T15:30:20.129Z,36.20
2018-07-21T15:32:51.964Z,33.20
2018-07-21T15:35:23.790Z,33.80
2018-07-21T15:37:55.663Z,25.40
2018-07-21T15:40:27.451Z,31.20
2018-07-21T15:42:59.637Z,30.80
2018-07-21T15:45:31.274Z,24.60
2018-07-21T15:48:03.307Z,27.80
2018-07-21T15:50:35.519Z,30.00
2018-07-21T15:53:07.732Z,23.80
2018-07-21T15:55:39.705Z,22.00
2018-07-21T15:58:11.561Z,26.00
2018-07-21T16:00:43.747Z,21.00
2018-07-21T16:03:16.161Z,23.00
2018-07-21T16:05:48.096Z,22.20
2018-07-21T16:08:20.432Z,21.40
2018-07-21T16:10:52.488Z,21.00
2018-07-21T16:13:24.556Z,23.20
2018-07-21T16:15:57.178Z,23.00
2018-07-21T16:18:29.015Z,19.20
2018-07-21T16:21:00.814Z,20.00
2018-07-21T16:23:32.811Z,21.80
2018-07-21T16:26:04.421Z,16.60
2018-07-21T16:28:36.484Z,19.20
2018-07-21T16:31:08.295Z,17.60
2018-07-21T16:33:39.986Z,19.60
2018-07-21T16:36:11.692Z,16.20
2018-07-21T16:38:43.716Z,15.40
2018-07-21T16:41:15.555Z,16.60
2018-07-21T16:43:47.980Z,18.20
2018-07-21T16:46:19.973Z,17.60
2018-07-21T16:48:52.013Z,22.40
2018-07-21T16:51:23.601Z,18.00
2018-07-21T16:53:55.909Z,17.20
2018-07-21T16:56:27.684Z,17.60
2018-07-21T16:58:59.825Z,19.60
2018-07-21T17:01:31.648Z,16.80
2018-07-21T17:04:03.788Z,17.80
2018-07-21T17:06:35.430Z,20.40
2018-07-21T17:09:08.934Z,16.00
2018-07-21T17:11:40.935Z,14.40
2018-07-21T17:14:13.085Z,21.20
2018-07-21T17:16:44.987Z,21.80
2018-07-21T17:19:17.182Z,21.40
2018-07-21T17:21:49.029Z,20.80
2018-07-21T17:24:21.156Z,17.80
2018-07-21T17:26:53.448Z,18.40
2018-07-21T17:29:26.221Z,21.00
2018-07-21T17:31:58.110Z,18.00
2018-07-21T17:34:31.058Z,20.00
2018-07-21T17:37:03.022Z,20.40
2018-07-21T17:39:35.128Z,19.40
2018-07-21T17:42:07.246Z,19.60
2018-07-21T17:44:40.088Z,18.60
2018-07-21T17:47:11.993Z,20.00
2018-07-21T17:49:43.826Z,20.00
2018-07-21T17:52:15.595Z,18.20
2018-07-21T17:54:47.945Z,21.20
2018-07-21T17:57:19.802Z,19.60
2018-07-21T17:59:51.834Z,20.20
2018-07-21T18:02:23.697Z,19.60
2018-07-21T18:04:55.682Z,19.40
2018-07-21T18:07:27.686Z,13.20
2018-07-21T18:10:00.690Z,16.20
2018-07-21T18:12:32.495Z,14.80
2018-07-21T18:15:04.117Z,16.80
2018-07-21T18:17:36.107Z,18.80
2018-07-21T18:20:08.190Z,19.00
2018-07-21T18:22:39.888Z,19.80
2018-07-21T18:25:11.762Z,14.80
2018-07-21T18:27:43.535Z,19.20
2018-07-21T18:30:15.467Z,21.00
2018-07-21T18:32:47.456Z,18.20
2018-07-21T18:35:19.461Z,20.60
2018-07-21T18:37:51.575Z,18.20
2018-07-21T18:40:23.770Z,21.80
2018-07-21T18:42:55.972Z,22.40
2018-07-21T18:45:29.096Z,21.00
2018-07-21T18:48:00.986Z,17.00
2018-07-21T18:50:32.650Z,19.20
2018-07-21T18:53:04.518Z,15.80
2018-07-21T18:55:36.392Z,19.40
2018-07-21T18:58:08.073Z,22.80
2018-07-21T19:00:40.147Z,16.20
2018-07-21T19:03:12.019Z,16.60
2018-07-21T19:05:43.969Z,19.20
2018-07-21T19:08:20.143Z,20.00
2018-07-21T19:10:54.016Z,19.00
2018-07-21T19:13:26.156Z,22.60
2018-07-21T19:16:02.491Z,23.80
2018-07-21T19:18:34.436Z,19.20
2018-07-21T19:21:10.842Z,16.20
2018-07-21T19:23:42.737Z,21.20
2018-07-21T19:26:19.080Z,17.00
2018-07-21T19:28:50.692Z,22.80
2018-07-21T19:31:22.615Z,19.60
2018-07-21T19:33:54.639Z,18.20
2018-07-21T19:36:26.519Z,19.40
2018-07-21T19:38:58.596Z,22.40
2018-07-21T19:41:35.008Z,21.40
2018-07-21T19:44:07.034Z,14.20
2018-07-21T19:46:39.448Z,22.40
2018-07-21T19:49:11.304Z,22.40
2018-07-21T19:51:43.244Z,23.40
2018-07-21T19:54:15.016Z,26.00
2018-07-21T19:56:46.935Z,18.80
2018-07-21T19:59:18.628Z,20.00
2018-07-21T20:01:50.392Z,20.80
2018-07-21T20:04:22.051Z,17.40
2018-07-21T20:06:53.886Z,21.60
2018-07-21T20:09:25.789Z,21.00
2018-07-21T20:11:58.149Z,23.40
2018-07-21T20:14:30.141Z,22.80
2018-07-21T20:17:01.976Z,22.80
2018-07-21T20:19:33.699Z,23.40
2018-07-21T20:22:05.490Z,22.20
2018-07-21T20:24:37.941Z,19.20
2018-07-21T20:27:10.030Z,20.20
2018-07-21T20:29:41.865Z,22.60
2018-07-21T20:32:13.762Z,17.80
2018-07-21T20:34:45.617Z,19.60
2018-07-21T20:37:17.451Z,21.80
2018-07-21T20:39:49.365Z,19.00
2018-07-21T20:42:21.214Z,19.60
2018-07-21T20:44:52.984Z,20.20
2018-07-21T20:47:25.212Z,19.20
2018-07-21T20:49:56.921Z,16.40
2018-07-21T20:52:28.965Z,20.60
2018-07-21T20:55:00.791Z,22.80
2018-07-21T20:57:32.755Z,21.20
2018-07-21T21:00:04.402Z,20.20
2018-07-21T21:02:36.151Z,19.20
2018-07-21T21:05:08.133Z,23.00
2018-07-21T21:07:40.034Z,23.60
2018-07-21T21:10:12.018Z,22.60
2018-07-21T21:12:44.046Z,22.40
2018-07-21T21:15:15.981Z,18.80
2018-07-21T21:17:48.077Z,26.40
2018-07-21T21:20:20.723Z,21.00
2018-07-21T21:22:52.627Z,25.80
2018-07-21T21:25:24.648Z,21.80
2018-07-21T21:27:56.507Z,17.80
2018-07-21T21:30:28.379Z,22.60
2018-07-21T21:33:00.232Z,19.00
2018-07-21T21:35:32.070Z,21.00
2018-07-21T21:38:03.696Z,24.60
2018-07-21T21:40:35.541Z,23.00
2018-07-21T21:43:07.465Z,22.00
2018-07-21T21:45:39.220Z,22.40
2018-07-21T21:48:12.720Z,18.00
2018-07-21T21:50:44.630Z,22.40
2018-07-21T21:53:16.674Z,22.00
2018-07-21T21:55:48.404Z,19.80
2018-07-21T21:58:20.196Z,19.20
2018-07-21T22:01:01.683Z,23.20
2018-07-21T22:03:33.626Z,21.00
2018-07-21T22:06:05.455Z,18.80
2018-07-21T22:08:37.343Z,25.00
2018-07-21T22:11:09.245Z,21.20
2018-07-21T22:13:40.990Z,23.80
2018-07-21T22:16:12.950Z,24.00
2018-07-21T22:18:44.489Z,16.40
2018-07-21T22:21:16.355Z,20.20
2018-07-21T22:23:47.854Z,18.80
2018-07-21T22:26:19.693Z,20.20
2018-07-21T22:28:51.597Z,19.80
2018-07-21T22:31:23.249Z,22.00
2018-07-21T22:33:55.537Z,20.80
2018-07-21T22:36:27.099Z,19.00
2018-07-21T22:38:58.758Z,22.40
2018-07-21T22:41:30.398Z,22.40
2018-07-21T22:44:02.142Z,22.60
2018-07-21T22:46:33.942Z,19.00
2018-07-21T22:49:05.765Z,21.00
2018-07-21T22:51:37.726Z,22.20
2018-07-21T22:54:09.846Z,19.40
2018-07-21T22:56:41.756Z,21.00
2018-07-21T22:59:13.498Z,19.40
2018-07-21T23:01:45.184Z,22.20
2018-07-21T23:04:17.146Z,18.80
2018-07-21T23:06:48.864Z,23.40
2018-07-21T23:09:20.790Z,21.60
2018-07-21T23:11:52.645Z,21.20
2018-07-21T23:14:24.465Z,21.80
2018-07-21T23:16:56.133Z,23.00
2018-07-21T23:19:27.864Z,22.60
2018-07-21T23:21:59.630Z,22.80
2018-07-21T23:24:31.310Z,23.80
2018-07-21T23:27:02.936Z,23.40
2018-07-21T23:29:34.791Z,23.40
2018-07-21T23:32:06.918Z,18.00
2018-07-21T23:34:38.729Z,21.20
2018-07-21T23:37:10.437Z,22.80
2018-07-21T23:39:42.316Z,23.60
2018-07-21T23:42:14.173Z,20.20
2018-07-21T23:44:45.777Z,20.20
2018-07-21T23:47:18.183Z,27.20
2018-07-21T23:49:50.094Z,20.20
2018-07-21T23:52:21.769Z,21.60
2018-07-21T23:54:53.869Z,21.60
2018-07-21T23:57:25.780Z,21.40
2018-07-21T23:59:57.732Z,24.00
